< < Back
Terminal Aerodrome Forecast


Current Version              Previous Versions:   1  2  3  4  5  6  7  8  9  

Terminal Aerodrome Forecast

363
FTUS42 KGSP 292339
TAFAVL
TAF
KAVL 292339Z 3000/3024 20007KT P6SM BKN120
     FM300200 22004KT P6SM BKN050
     FM300400 31009KT P6SM BKN035
     FM300700 33013G21KT P6SM BKN025
     FM301200 34017G27KT P6SM SCT250=



Latest METAR

315
SAUS70 KWBC 301200 RRB
MTRAVL
METAR KAVL 301154Z 35017G25KT 10SM BKN034 M01/M04 A3012 RMK AO2 PK WND
36027/1101 UPB08E44 SLP207 P0000 60000 T10061039 10050 21006
53020


USA.gov is the U.S. government's official web portal to all federal, state and local government web resources and services.